createdAt,value
2023-08-24T00:02:12.032Z,23.95
2023-08-24T00:04:39.328Z,24.12
2023-08-24T00:07:06.782Z,24.09
2023-08-24T00:09:34.059Z,24.08
2023-08-24T00:12:01.534Z,24.09
2023-08-24T00:14:29.194Z,24.02
2023-08-24T00:16:56.545Z,23.97
2023-08-24T00:19:23.844Z,23.97
2023-08-24T00:21:51.242Z,24.04
2023-08-24T00:24:18.622Z,23.91
2023-08-24T00:26:46.038Z,23.71
2023-08-24T00:29:13.377Z,23.75
2023-08-24T00:31:40.840Z,23.41
2023-08-24T00:34:08.151Z,23.31
2023-08-24T00:36:35.849Z,23.28
2023-08-24T00:39:03.487Z,23.24
2023-08-24T00:41:31.237Z,23.26
2023-08-24T00:43:58.966Z,23.28
2023-08-24T00:46:28.299Z,23.26
2023-08-24T00:48:58.428Z,23.26
2023-08-24T00:51:25.891Z,23.34
2023-08-24T00:53:53.278Z,23.23
2023-08-24T00:56:25.789Z,23.20
2023-08-24T00:58:53.536Z,23.23
2023-08-24T01:01:21.135Z,23.30
2023-08-24T01:03:48.543Z,23.27
2023-08-24T01:06:15.874Z,23.34
2023-08-24T01:08:43.328Z,23.40
2023-08-24T01:11:16.690Z,23.34
2023-08-24T01:13:49.097Z,23.31
2023-08-24T01:16:22.554Z,23.31
2023-08-24T01:18:50.081Z,23.28
2023-08-24T01:21:18.135Z,23.26
2023-08-24T01:24:13.629Z,23.27
2023-08-24T01:26:41.308Z,23.23
2023-08-24T01:29:08.572Z,23.23
2023-08-24T01:31:36.042Z,23.19
2023-08-24T01:34:03.341Z,23.26
2023-08-24T01:36:31.777Z,23.28
2023-08-24T01:39:19.465Z,23.40
2023-08-24T01:41:47.125Z,23.41
2023-08-24T01:44:14.521Z,23.27
2023-08-24T01:46:41.901Z,23.20
2023-08-24T01:49:09.261Z,23.20
2023-08-24T01:51:36.652Z,23.24
2023-08-24T01:54:04.267Z,23.28
2023-08-24T01:56:31.599Z,23.40
2023-08-24T01:58:59.479Z,23.41
2023-08-24T02:01:27.004Z,23.49
2023-08-24T02:03:54.358Z,23.51
2023-08-24T02:06:21.739Z,23.49
2023-08-24T02:08:49.429Z,23.41
2023-08-24T02:11:17.006Z,23.53
2023-08-24T02:13:44.286Z,23.53
2023-08-24T02:16:12.737Z,23.43
2023-08-24T02:18:40.033Z,23.37
2023-08-24T02:21:12.975Z,23.30
2023-08-24T02:23:41.071Z,23.23
2023-08-24T02:26:08.738Z,23.16
2023-08-24T02:28:37.569Z,23.20
2023-08-24T02:31:05.212Z,23.16
2023-08-24T02:33:32.759Z,23.16
2023-08-24T02:36:00.219Z,23.10
2023-08-24T02:38:27.648Z,23.09
2023-08-24T02:41:04.963Z,23.02
2023-08-24T02:43:32.896Z,22.91
2023-08-24T02:46:08.589Z,22.98
2023-08-24T02:48:36.200Z,23.02
2023-08-24T02:51:04.767Z,23.02
2023-08-24T02:53:32.182Z,22.85
2023-08-24T02:55:59.672Z,22.88
2023-08-24T02:58:28.817Z,22.88
2023-08-24T03:00:56.588Z,22.86
2023-08-24T03:03:24.736Z,22.81
2023-08-24T03:05:58.814Z,22.82
2023-08-24T03:08:28.413Z,22.86
2023-08-24T03:10:55.929Z,22.79
2023-08-24T03:13:23.936Z,22.86
2023-08-24T03:15:53.368Z,22.86
2023-08-24T03:18:21.319Z,22.83
2023-08-24T03:20:49.415Z,22.69
2023-08-24T03:23:17.569Z,22.66
2023-08-24T03:25:45.320Z,22.72
2023-08-24T03:28:12.769Z,22.62
2023-08-24T03:30:46.629Z,22.63
2023-08-24T03:33:14.479Z,22.72
2023-08-24T03:35:41.950Z,22.66
2023-08-24T03:38:09.424Z,22.66
2023-08-24T03:40:36.741Z,22.66
2023-08-24T03:43:04.464Z,22.56
2023-08-24T03:45:31.992Z,22.49
2023-08-24T03:47:59.593Z,22.40
2023-08-24T03:50:27.667Z,22.45
2023-08-24T03:52:55.817Z,22.49
2023-08-24T03:55:24.223Z,22.49
2023-08-24T03:57:52.028Z,22.51
2023-08-24T04:00:19.685Z,22.45
2023-08-24T04:02:47.329Z,22.44
2023-08-24T04:05:22.230Z,22.48
2023-08-24T04:07:50.000Z,22.42
2023-08-24T04:10:17.413Z,22.40
2023-08-24T04:12:44.814Z,22.34
2023-08-24T04:15:12.362Z,22.38
2023-08-24T04:17:41.799Z,22.42
2023-08-24T04:20:11.646Z,22.47
2023-08-24T04:22:38.967Z,22.52
2023-08-24T04:25:07.403Z,22.52
2023-08-24T04:27:34.737Z,22.56
2023-08-24T04:30:02.112Z,22.68
2023-08-24T04:32:29.478Z,22.76
2023-08-24T04:34:57.014Z,22.75
2023-08-24T04:37:24.356Z,22.75
2023-08-24T04:39:51.637Z,22.75
2023-08-24T04:42:19.004Z,22.76
2023-08-24T04:44:46.389Z,22.81
2023-08-24T04:47:13.695Z,22.82
2023-08-24T04:49:41.064Z,22.71
2023-08-24T04:52:08.347Z,22.81
2023-08-24T04:54:35.779Z,22.79
2023-08-24T04:57:03.386Z,22.83
2023-08-24T04:59:30.703Z,22.85
2023-08-24T05:01:58.194Z,22.76
2023-08-24T05:04:25.804Z,22.75
2023-08-24T05:06:53.029Z,22.81
2023-08-24T05:09:20.462Z,22.88
2023-08-24T05:11:47.793Z,22.91
2023-08-24T05:14:15.354Z,22.92
2023-08-24T05:16:42.878Z,23.04
2023-08-24T05:19:10.356Z,23.10
2023-08-24T05:21:37.635Z,23.14
2023-08-24T05:24:05.525Z,23.17
2023-08-24T05:26:33.049Z,23.20
2023-08-24T05:29:00.372Z,23.24
2023-08-24T05:31:27.773Z,23.36
2023-08-24T05:33:55.153Z,23.31
2023-08-24T05:36:22.417Z,23.46
2023-08-24T05:41:20.357Z,23.64
2023-08-24T05:43:48.507Z,23.77
2023-08-24T05:46:16.076Z,23.85
2023-08-24T05:48:43.581Z,23.88
2023-08-24T05:51:13.581Z,24.01
2023-08-24T05:53:42.120Z,24.09
2023-08-24T05:56:10.095Z,24.10
2023-08-24T05:58:37.557Z,24.18
2023-08-24T06:01:04.880Z,24.33
2023-08-24T06:03:32.482Z,24.36
2023-08-24T06:06:04.889Z,24.40
2023-08-24T06:08:32.912Z,24.39
2023-08-24T06:11:23.663Z,24.52
2023-08-24T06:13:55.928Z,24.59
2023-08-24T06:16:24.219Z,24.67
2023-08-24T06:18:51.791Z,24.81
2023-08-24T06:21:19.699Z,24.86
2023-08-24T06:23:48.731Z,24.86
2023-08-24T06:26:16.470Z,24.94
2023-08-24T06:28:44.391Z,25.05
2023-08-24T06:31:12.197Z,25.08
2023-08-24T06:33:39.605Z,25.19
2023-08-24T06:36:09.187Z,25.14
2023-08-24T06:38:37.284Z,25.14
2023-08-24T06:41:05.016Z,25.17
2023-08-24T06:43:32.344Z,25.24
2023-08-24T06:46:00.079Z,25.39
2023-08-24T06:48:27.680Z,26.38
2023-08-24T06:50:55.339Z,29.03
2023-08-24T06:53:23.552Z,31.08
2023-08-24T06:55:58.134Z,32.01
2023-08-24T06:58:25.489Z,33.08
2023-08-24T07:00:52.872Z,33.20
2023-08-24T07:03:20.326Z,33.02
2023-08-24T07:05:47.725Z,32.86
2023-08-24T07:08:15.409Z,33.96
2023-08-24T07:10:43.746Z,34.10
2023-08-24T07:13:11.233Z,34.32
2023-08-24T07:15:38.707Z,34.15
2023-08-24T07:18:06.884Z,34.74
2023-08-24T07:20:34.530Z,34.99
2023-08-24T07:23:02.351Z,35.87
2023-08-24T07:25:29.636Z,36.04
2023-08-24T07:27:59.583Z,36.08
2023-08-24T07:30:33.877Z,36.01
2023-08-24T07:33:04.419Z,36.33
2023-08-24T07:35:32.299Z,36.49
2023-08-24T07:37:59.699Z,35.60
2023-08-24T07:40:27.516Z,35.94
2023-08-24T07:42:56.574Z,36.31
2023-08-24T07:45:26.872Z,36.56
2023-08-24T07:47:55.825Z,37.11
2023-08-24T07:50:24.124Z,36.93
2023-08-24T07:52:52.766Z,36.06
2023-08-24T07:55:21.402Z,36.48
2023-08-24T07:57:50.591Z,33.50
2023-08-24T08:00:18.430Z,34.01
2023-08-24T08:02:45.805Z,35.27
2023-08-24T08:05:13.869Z,35.93
2023-08-24T08:07:41.324Z,35.32
2023-08-24T08:10:09.074Z,35.73
2023-08-24T08:12:37.087Z,36.19
2023-08-24T08:15:05.226Z,34.30
2023-08-24T08:17:50.074Z,35.70
2023-08-24T08:20:17.773Z,35.50
2023-08-24T08:22:46.110Z,35.69
2023-08-24T08:25:16.268Z,35.60
2023-08-24T08:27:45.264Z,34.78
2023-08-24T08:30:13.407Z,35.93
2023-08-24T08:32:40.878Z,36.11
2023-08-24T08:35:09.611Z,34.56
2023-08-24T08:37:37.520Z,35.41
2023-08-24T08:40:10.711Z,35.90
2023-08-24T08:42:38.457Z,35.22
2023-08-24T08:45:09.470Z,34.22
2023-08-24T08:47:37.142Z,33.88
2023-08-24T08:50:04.943Z,32.15
2023-08-24T08:52:35.150Z,31.54
2023-08-24T08:55:07.521Z,31.04
2023-08-24T08:57:35.501Z,30.69
2023-08-24T09:00:03.712Z,30.17
2023-08-24T09:02:31.168Z,29.77
2023-08-24T09:04:58.870Z,29.86
2023-08-24T09:07:26.393Z,29.77
2023-08-24T09:09:53.856Z,30.04
2023-08-24T09:12:24.600Z,29.90
2023-08-24T09:14:55.934Z,30.16
2023-08-24T09:17:24.249Z,29.87
2023-08-24T09:19:53.858Z,29.67
2023-08-24T09:22:22.144Z,29.92
2023-08-24T09:24:51.122Z,29.67
2023-08-24T09:27:19.901Z,29.75
2023-08-24T09:29:54.007Z,30.13
2023-08-24T09:32:24.920Z,30.20
2023-08-24T09:34:53.026Z,30.48
2023-08-24T09:37:21.327Z,30.65
2023-08-24T09:39:49.517Z,30.68
2023-08-24T09:42:18.750Z,30.72
2023-08-24T09:44:49.527Z,30.68
2023-08-24T09:47:16.927Z,30.65
2023-08-24T09:49:44.337Z,30.67
2023-08-24T09:52:13.129Z,30.89
2023-08-24T09:54:40.460Z,30.91
2023-08-24T09:57:09.693Z,30.79
2023-08-24T09:59:37.060Z,30.83
2023-08-24T10:02:05.160Z,30.52
2023-08-24T10:04:34.950Z,30.67
2023-08-24T10:07:12.148Z,30.96
2023-08-24T10:09:45.779Z,30.99
2023-08-24T10:12:13.119Z,30.64
2023-08-24T10:14:48.564Z,30.65
2023-08-24T10:17:16.052Z,30.78
2023-08-24T10:19:43.855Z,30.86
2023-08-24T10:22:11.273Z,30.98
2023-08-24T10:24:38.566Z,31.03
2023-08-24T10:27:06.090Z,31.23
2023-08-24T10:29:33.440Z,31.43
2023-08-24T10:32:00.942Z,31.34
2023-08-24T10:34:28.272Z,31.16
2023-08-24T10:36:55.954Z,31.61
2023-08-24T10:39:30.392Z,31.73
2023-08-24T10:41:57.895Z,31.81
2023-08-24T10:44:39.089Z,31.88
2023-08-24T10:47:07.928Z,31.97
2023-08-24T10:49:35.283Z,31.98
2023-08-24T10:52:24.413Z,32.02
2023-08-24T10:54:55.005Z,32.21
2023-08-24T10:57:28.739Z,31.99
2023-08-24T11:00:15.446Z,32.01
2023-08-24T11:02:49.762Z,32.31
2023-08-24T11:05:26.052Z,32.31
2023-08-24T11:07:57.842Z,32.29
2023-08-24T11:10:26.699Z,32.52
2023-08-24T11:13:03.906Z,32.43
2023-08-24T11:15:32.515Z,32.31
2023-08-24T11:18:24.820Z,32.35
2023-08-24T11:20:56.396Z,32.65
2023-08-24T11:23:25.085Z,32.80
2023-08-24T11:25:56.224Z,32.42
2023-08-24T11:28:24.386Z,32.31
2023-08-24T11:30:54.475Z,32.32
2023-08-24T11:33:31.521Z,32.43
2023-08-24T11:35:59.402Z,32.63
2023-08-24T11:38:26.954Z,32.66
2023-08-24T11:40:54.463Z,32.67
2023-08-24T11:43:28.307Z,32.60
2023-08-24T11:45:55.777Z,32.33
2023-08-24T11:48:27.596Z,32.45
2023-08-24T11:50:56.274Z,32.59
2023-08-24T11:53:25.559Z,32.33
2023-08-24T11:56:05.664Z,32.28
2023-08-24T11:58:33.801Z,32.21
2023-08-24T12:01:01.769Z,32.52
2023-08-24T12:03:29.397Z,32.62
2023-08-24T12:06:01.214Z,32.39
2023-08-24T12:08:28.649Z,32.62
2023-08-24T12:10:56.581Z,32.35
2023-08-24T12:13:24.049Z,32.80
2023-08-24T12:15:54.105Z,33.02
2023-08-24T12:18:21.580Z,33.07
2023-08-24T12:20:48.982Z,32.93
2023-08-24T12:23:16.365Z,32.75
2023-08-24T12:25:44.256Z,32.29
2023-08-24T12:28:16.384Z,32.05
2023-08-24T12:30:50.916Z,32.33
2023-08-24T12:33:28.838Z,32.33
2023-08-24T12:35:57.021Z,32.55
2023-08-24T12:38:25.182Z,32.38
2023-08-24T12:40:53.517Z,32.52
2023-08-24T12:43:21.103Z,32.65
2023-08-24T12:45:48.893Z,32.94
2023-08-24T12:48:16.661Z,33.00
2023-08-24T12:50:44.249Z,32.99
2023-08-24T12:53:11.664Z,33.06
2023-08-24T12:55:40.509Z,33.14
2023-08-24T12:58:08.280Z,32.94
2023-08-24T13:00:35.862Z,33.20
2023-08-24T13:03:03.443Z,33.27
2023-08-24T13:05:32.670Z,33.38
2023-08-24T13:08:00.784Z,33.24
2023-08-24T13:10:28.823Z,33.16
2023-08-24T13:12:57.731Z,32.87
2023-08-24T13:15:25.446Z,33.03
2023-08-24T13:17:53.378Z,32.97
2023-08-24T13:20:21.323Z,32.42
2023-08-24T13:22:48.640Z,32.67
2023-08-24T13:25:16.401Z,32.55
2023-08-24T13:27:43.958Z,32.87
2023-08-24T13:30:11.615Z,32.76
2023-08-24T13:32:40.242Z,32.70
2023-08-24T13:35:10.270Z,32.94
2023-08-24T13:37:37.915Z,33.24
2023-08-24T13:40:06.088Z,33.04
2023-08-24T13:42:33.492Z,32.62
2023-08-24T13:45:00.847Z,32.59
2023-08-24T13:47:28.328Z,32.79
2023-08-24T13:49:55.763Z,32.83
2023-08-24T13:52:23.378Z,32.97
2023-08-24T13:55:03.240Z,33.08
2023-08-24T13:57:38.249Z,33.16
2023-08-24T14:00:09.105Z,32.53
2023-08-24T14:02:40.164Z,32.49
2023-08-24T14:05:10.510Z,32.63
2023-08-24T14:07:38.313Z,32.58
2023-08-24T14:10:07.851Z,32.59
2023-08-24T14:12:35.554Z,32.63
2023-08-24T14:15:03.302Z,32.66
2023-08-24T14:17:31.238Z,32.99
2023-08-24T14:19:58.853Z,33.10
2023-08-24T14:22:27.136Z,32.59
2023-08-24T14:24:54.611Z,32.46
2023-08-24T14:27:21.997Z,32.28
2023-08-24T14:29:49.431Z,32.09
2023-08-24T14:32:17.123Z,32.43
2023-08-24T14:34:44.708Z,32.55
2023-08-24T14:37:12.285Z,32.56
2023-08-24T14:39:39.717Z,32.53
2023-08-24T14:42:08.138Z,32.43
2023-08-24T14:44:36.350Z,32.25
2023-08-24T14:47:03.974Z,32.35
2023-08-24T14:49:31.643Z,32.36
2023-08-24T14:51:59.326Z,32.29
2023-08-24T14:54:26.915Z,32.11
2023-08-24T14:56:54.615Z,32.14
2023-08-24T14:59:23.655Z,32.08
2023-08-24T15:01:51.222Z,32.17
2023-08-24T15:04:18.613Z,32.31
2023-08-24T15:06:46.166Z,32.35
2023-08-24T15:09:13.488Z,32.29
2023-08-24T15:11:40.888Z,32.32
2023-08-24T15:14:08.457Z,32.19
2023-08-24T15:16:35.941Z,32.09
2023-08-24T15:19:03.536Z,32.04
2023-08-24T15:21:30.882Z,32.08
2023-08-24T15:23:58.356Z,31.99
2023-08-24T15:26:25.927Z,31.94
2023-08-24T15:29:13.049Z,31.94
2023-08-24T15:31:41.081Z,31.97
2023-08-24T15:34:08.873Z,31.84
2023-08-24T15:36:36.353Z,31.56
2023-08-24T15:39:04.536Z,31.57
2023-08-24T15:41:31.987Z,31.81
2023-08-24T15:43:59.425Z,31.63
2023-08-24T15:46:26.987Z,31.67
2023-08-24T15:48:57.091Z,31.60
2023-08-24T15:51:25.024Z,31.66
2023-08-24T15:53:52.425Z,31.33
2023-08-24T15:56:20.187Z,31.32
2023-08-24T15:58:47.953Z,31.12
2023-08-24T16:01:15.416Z,31.16
2023-08-24T16:03:43.476Z,31.19
2023-08-24T16:06:10.969Z,31.18
2023-08-24T16:08:38.304Z,31.12
2023-08-24T16:11:06.198Z,31.09
2023-08-24T16:13:33.719Z,30.99
2023-08-24T16:16:01.141Z,30.95
2023-08-24T16:18:28.440Z,31.00
2023-08-24T16:20:55.987Z,31.03
2023-08-24T16:23:23.527Z,31.03
2023-08-24T16:25:50.949Z,31.02
2023-08-24T16:28:18.522Z,30.85
2023-08-24T16:30:49.691Z,30.68
2023-08-24T16:33:20.397Z,30.67
2023-08-24T16:35:48.609Z,30.67
2023-08-24T16:38:16.542Z,30.81
2023-08-24T16:40:44.198Z,30.72
2023-08-24T16:43:14.663Z,30.61
2023-08-24T16:45:42.254Z,30.57
2023-08-24T16:48:10.044Z,30.51
2023-08-24T16:50:37.428Z,30.47
2023-08-24T16:53:05.064Z,30.31
2023-08-24T16:55:32.568Z,30.40
2023-08-24T16:57:59.976Z,30.34
2023-08-24T17:00:27.465Z,30.28
2023-08-24T17:02:56.780Z,30.10
2023-08-24T17:05:24.589Z,30.03
2023-08-24T17:08:11.290Z,30.00
2023-08-24T17:10:40.594Z,29.90
2023-08-24T17:13:08.279Z,29.83
2023-08-24T17:15:35.860Z,29.72
2023-08-24T17:18:04.101Z,29.62
2023-08-24T17:20:31.507Z,29.55
2023-08-24T17:22:59.020Z,29.49
2023-08-24T17:25:26.528Z,29.38
2023-08-24T17:27:54.273Z,29.46
2023-08-24T17:30:22.100Z,29.32
2023-08-24T17:32:49.472Z,29.24
2023-08-24T17:35:17.208Z,29.31
2023-08-24T17:37:44.555Z,29.38
2023-08-24T17:40:13.658Z,29.32
2023-08-24T17:42:41.311Z,29.21
2023-08-24T17:45:09.815Z,29.17
2023-08-24T17:47:37.490Z,29.17
2023-08-24T17:50:09.798Z,29.10
2023-08-24T17:52:37.314Z,29.06
2023-08-24T17:55:06.370Z,29.08
2023-08-24T17:57:34.396Z,28.97
2023-08-24T18:00:02.920Z,29.03
2023-08-24T18:02:33.756Z,29.06
2023-08-24T18:05:01.347Z,28.97
2023-08-24T18:07:28.864Z,28.93
2023-08-24T18:09:56.668Z,28.83
2023-08-24T18:12:24.714Z,28.86
2023-08-24T18:14:52.142Z,28.87
2023-08-24T18:17:19.664Z,28.80
2023-08-24T18:19:47.381Z,28.74
2023-08-24T18:22:14.788Z,28.60
2023-08-24T18:24:43.936Z,28.61
2023-08-24T18:27:11.509Z,28.64
2023-08-24T18:29:39.290Z,28.55
2023-08-24T18:32:06.984Z,28.57
2023-08-24T18:34:34.892Z,28.61
2023-08-24T18:37:02.323Z,28.53
2023-08-24T18:39:30.479Z,28.42
2023-08-24T18:41:58.330Z,28.61
2023-08-24T18:44:26.018Z,28.48
2023-08-24T18:46:54.388Z,28.39
2023-08-24T18:49:22.121Z,28.45
2023-08-24T18:51:52.254Z,28.20
2023-08-24T18:54:19.910Z,27.92
2023-08-24T18:56:47.497Z,27.97
2023-08-24T18:59:15.026Z,27.95
2023-08-24T19:01:42.578Z,27.81
2023-08-24T19:04:10.212Z,27.85
2023-08-24T19:06:46.648Z,27.71
2023-08-24T19:09:14.862Z,27.74
2023-08-24T19:11:42.266Z,27.71
2023-08-24T19:14:09.749Z,27.65
2023-08-24T19:16:37.375Z,27.62
2023-08-24T19:19:05.050Z,27.67
2023-08-24T19:21:32.599Z,27.61
2023-08-24T19:24:00.052Z,27.50
2023-08-24T19:26:27.560Z,27.43
2023-08-24T19:28:55.116Z,27.39
2023-08-24T19:31:22.620Z,27.34
2023-08-24T19:33:50.292Z,27.31
2023-08-24T19:36:17.806Z,27.33
2023-08-24T19:38:45.395Z,27.40
2023-08-24T19:41:12.797Z,27.37
2023-08-24T19:43:40.236Z,27.30
2023-08-24T19:46:07.895Z,27.31
2023-08-24T19:48:36.842Z,27.36
2023-08-24T19:51:04.127Z,27.50
2023-08-24T19:53:31.582Z,27.29
2023-08-24T19:55:58.961Z,27.36
2023-08-24T19:58:26.578Z,27.47
2023-08-24T20:00:56.950Z,27.37
2023-08-24T20:03:24.765Z,27.23
2023-08-24T20:05:59.098Z,27.19
2023-08-24T20:08:29.635Z,27.17
2023-08-24T20:10:57.822Z,27.04
2023-08-24T20:13:25.238Z,27.04
2023-08-24T20:15:52.593Z,26.99
2023-08-24T20:18:20.091Z,26.96
2023-08-24T20:20:48.286Z,27.02
2023-08-24T20:23:15.589Z,26.99
2023-08-24T20:25:43.184Z,26.88
2023-08-24T20:28:10.660Z,26.76
2023-08-24T20:30:38.152Z,26.64
2023-08-24T20:33:05.643Z,26.69
2023-08-24T20:35:33.396Z,26.68
2023-08-24T20:38:00.765Z,26.59
2023-08-24T20:40:29.138Z,26.64
2023-08-24T20:42:56.607Z,26.64
2023-08-24T20:45:24.127Z,26.69
2023-08-24T20:47:51.928Z,26.64
2023-08-24T20:50:19.643Z,26.59
2023-08-24T20:52:46.950Z,26.49
2023-08-24T20:55:15.419Z,26.43
2023-08-24T20:57:42.957Z,26.31
2023-08-24T21:00:12.538Z,26.27
2023-08-24T21:02:40.159Z,26.17
2023-08-24T21:05:08.403Z,26.03
2023-08-24T21:07:35.717Z,26.10
2023-08-24T21:10:03.287Z,26.07
2023-08-24T21:12:30.741Z,25.93
2023-08-24T21:14:58.340Z,25.85
2023-08-24T21:17:27.392Z,25.90
2023-08-24T21:19:54.948Z,25.94
2023-08-24T21:22:22.308Z,25.85
2023-08-24T21:24:49.915Z,25.73
2023-08-24T21:27:17.454Z,25.70
2023-08-24T21:29:45.488Z,25.72
2023-08-24T21:32:12.970Z,25.55
2023-08-24T21:34:40.573Z,25.65
2023-08-24T21:37:07.919Z,25.55
2023-08-24T21:39:35.360Z,25.49
2023-08-24T21:42:03.089Z,25.45
2023-08-24T21:44:30.653Z,25.49
2023-08-24T21:46:58.049Z,25.58
2023-08-24T21:49:25.777Z,25.48
2023-08-24T21:51:53.165Z,25.45
2023-08-24T21:54:20.600Z,25.39
2023-08-24T21:56:48.058Z,25.42
2023-08-24T21:59:15.517Z,25.45
2023-08-24T22:01:42.952Z,25.43
2023-08-24T22:04:10.719Z,25.36
2023-08-24T22:06:38.215Z,25.32
2023-08-24T22:09:05.831Z,25.61
2023-08-24T22:11:33.100Z,25.59
2023-08-24T22:14:01.007Z,25.63
2023-08-24T22:16:31.627Z,25.52
2023-08-24T22:18:59.089Z,25.45
2023-08-24T22:21:26.890Z,25.28
2023-08-24T22:23:54.532Z,25.22
2023-08-24T22:26:22.495Z,25.31
2023-08-24T22:28:49.885Z,25.26
2023-08-24T22:31:18.041Z,25.29
2023-08-24T22:33:45.416Z,25.31
2023-08-24T22:36:13.396Z,25.36
2023-08-24T22:38:40.931Z,25.48
2023-08-24T22:41:08.358Z,25.52
2023-08-24T22:43:35.925Z,25.26
2023-08-24T22:46:04.470Z,25.26
2023-08-24T22:48:31.961Z,25.28
2023-08-24T22:50:59.453Z,25.17
2023-08-24T22:53:26.952Z,25.12
2023-08-24T22:55:54.381Z,25.18
2023-08-24T22:58:22.032Z,25.22
2023-08-24T23:00:49.392Z,25.19
2023-08-24T23:03:16.846Z,25.14
2023-08-24T23:05:44.218Z,25.17
2023-08-24T23:08:11.848Z,25.03
2023-08-24T23:10:39.632Z,25.07
2023-08-24T23:13:07.808Z,25.07
2023-08-24T23:15:35.446Z,25.07
2023-08-24T23:18:03.192Z,25.15
2023-08-24T23:20:30.694Z,24.95
2023-08-24T23:22:58.034Z,24.90
2023-08-24T23:25:25.526Z,24.88
2023-08-24T23:27:54.474Z,24.87
2023-08-24T23:30:22.184Z,24.86
2023-08-24T23:32:49.875Z,24.81
2023-08-24T23:35:17.384Z,24.83
2023-08-24T23:37:44.953Z,24.64
2023-08-24T23:40:13.823Z,24.71
2023-08-24T23:42:42.144Z,24.76
2023-08-24T23:45:11.357Z,24.78
2023-08-24T23:47:39.452Z,24.73
2023-08-24T23:50:07.322Z,24.80
2023-08-24T23:52:35.040Z,24.80
2023-08-24T23:55:03.821Z,24.78
2023-08-24T23:57:31.315Z,24.76
2023-08-24T23:59:59.182Z,24.76
